Latest Coastal Weather Observations for Low Rocky Point

IDT60701

Issued at 2:02 pm EDT Thursday 12 December 2019 (issued every 10 minutes, with the page automatically refreshed every 10 minutes)

About coastal observations | Map of coastal stations | Coastal observations for TAS | Marine services | Other Formats
Station Details ID: 097080 Name: LOW ROCKY POINT Lat: -42.98 Lon: 145.50 Height: 34.0 m
Data from the previous 72 hours. | See also: Recent months at Low Rocky Point
Date/Time
EDT
Wind Sea
Height
m
Swell Vis
km
Cloud Weather Temp
°C
Press
hPa
Rain since
9am
mm
Dir  Spd
kts
Gust
kts
Height
m
Period
s
Dir
12/02:00pm WSW 14 20 - - - - - - - 13.7 1014.9 -
12/01:30pm WSW 13 17 - - - - - - - 13.4 1014.8 -
12/01:00pm WSW 15 18 - - - - - - - 12.1 1014.8 -
12/12:30pm WSW 15 20 - - - - - - - 13.5 1014.6 -
12/12:00pm SW 13 18 - - - - - - - 12.5 1014.4 -
12/11:30am WSW 17 21 - - - - - - - 13.4 1014.0 -
12/11:00am WSW 17 22 - - - - - - - 13.1 1013.8 -
12/10:30am WSW 21 25 - - - - - - - 12.2 1013.5 -
12/10:00am WSW 19 24 - - - - - - - 12.2 1013.3 -
12/09:30am WSW 19 24 - - - - - - - 12.4 1013.0 -
12/09:00am WSW 17 23 - - - - - - - 12.0 1012.8 -
12/08:30am WSW 20 26 - - - - - - - 11.3 1012.4 -
12/08:00am WSW 18 23 - - - - - - - 10.8 1012.1 -
12/07:30am WSW 18 23 - - - - - - - 10.1 1011.7 -
12/07:00am WSW 18 25 - - - - - - - 9.5 1011.2 -
12/06:51am W 25 34 - - - - - - - 9.5 1011.1 -
12/06:43am WNW 23 30 - - - - - - - 10.6 1010.7 -
12/06:30am NW 22 28 - - - - - - - 10.8 1010.4 -
12/06:00am NW 22 27 - - - - - - - 10.5 1010.6 -
12/05:30am WNW 23 29 - - - - - - - 10.3 1010.8 -
12/05:00am NW 23 29 - - - - - - - 11.0 1010.6 -
12/04:30am WNW 23 28 - - - - - - - 10.6 1010.8 -
12/04:00am WNW 23 29 - - - - - - - 10.3 1011.1 -
12/03:30am WNW 22 27 - - - - - - - 10.2 1011.3 -
12/03:00am W 26 30 - - - - - - - 10.7 1011.7 -
12/02:30am WNW 25 29 - - - - - - - 10.8 1011.9 -
12/02:00am W 22 26 - - - - - - - 10.8 1012.2 -
12/01:30am WNW 20 25 - - - - - - - 11.3 1012.3 -
12/01:00am WNW 18 24 - - - - - - - 11.1 1012.9 -
12/12:30am WNW 14 17 - - - - - - - 11.1 1013.3 -
12/12:00am WNW 13 15 - - - - - - - 10.8 1013.5 -
 
Date/Time
EDT
Wind Sea
Height
m
Swell Vis
km
Cloud Weather Temp
°C
Press
hPa
Rain since
9am
mm
Dir  Spd
kts
Gust
kts
Height
m
Period
s
Dir
11/11:30pm W 16 20 - - - - - - - 10.8 1014.0 -
11/11:00pm W 17 21 - - - - - - - 10.5 1014.4 -
11/10:30pm W 17 21 - - - - - - - 10.8 1014.6 -
11/10:00pm NNW 14 19 - - - - - - - 11.7 1014.7 -
11/09:30pm NNW 13 17 - - - - - - - 11.6 1014.6 -
11/09:00pm NNW 13 17 - - - - - - - 11.5 1014.8 -
11/08:30pm NNW 14 18 - - - - - - - 11.5 1015.0 -
11/08:00pm NNW 17 22 - - - - - - - 11.9 1015.0 -
11/07:30pm NW 18 23 - - - - - - - 12.5 1015.0 -
11/07:00pm NW 18 25 - - - - - - - 12.7 1015.0 -
11/06:30pm NW 19 23 - - - - - - - 12.7 1015.1 -
11/06:00pm NNW 17 23 - - - - - - - 12.6 1015.0 -
11/05:30pm NW 17 23 - - - - - - - 12.7 1015.3 -
11/05:00pm NW 19 23 - - - - - - - 12.6 1015.7 -
11/04:30pm NW 19 23 - - - - - - - 12.6 1016.2 -
11/04:00pm NW 19 22 - - - - - - - 12.1 1016.4 -
11/03:30pm NW 20 26 - - - - - - - 12.3 1016.5 -
11/03:00pm NW 22 27 - - - - - - - 13.0 1016.6 -
11/02:30pm NW 22 27 - - - - - - - 14.0 1016.8 -
11/02:00pm NW 22 27 - - - - - - - 14.0 1016.7 -
11/01:30pm NW 23 27 - - - - - - - 14.2 1016.8 -
11/01:00pm NW 22 25 - - - - - - - 13.3 1016.9 -
11/12:30pm NW 22 25 - - - - - - - 12.9 1017.0 -
11/12:00pm NW 21 25 - - - - - - - 12.9 1017.2 -
11/11:30am NW 21 25 - - - - - - - 13.2 1017.4 -
11/11:00am NW 21 25 - - - - - - - 13.0 1017.4 -
11/10:30am NW 21 24 - - - - - - - 13.5 1017.3 -
11/10:00am NW 19 22 - - - - - - - 13.3 1017.5 -
11/09:30am NW 16 21 - - - - - - - 13.6 1017.6 -
11/09:00am NNW 15 19 - - - - - - - 13.1 1017.9 -
11/08:30am NNW 13 16 - - - - - - - 12.6 1017.7 -
11/08:00am NNW 12 17 - - - - - - - 12.1 1017.8 -
11/07:30am NNW 11 14 - - - - - - - 11.7 1017.9 -
11/07:00am NNW 10 15 - - - - - - - 11.3 1017.9 -
11/06:30am NNW 11 14 - - - - - - - 10.7 1017.9 -
11/06:00am N 10 12 - - - - - - - 9.9 1018.0 -
11/05:30am N 9 11 - - - - - - - 9.9 1018.1 -
11/05:00am N 9 11 - - - - - - - 9.9 1018.2 -
11/04:30am N 9 11 - - - - - - - 9.8 1018.1 -
11/04:00am N 9 12 - - - - - - - 9.8 1018.2 -
11/03:30am N 9 11 - - - - - - - 9.7 1018.5 -
11/03:00am N 9 11 - - - - - - - 9.7 1018.9 -
11/02:30am N 10 11 - - - - - - - 9.6 1019.1 -
11/02:00am N 9 11 - - - - - - - 9.5 1019.2 -
11/01:30am N 9 11 - - - - - - - 9.5 1019.4 -
11/01:00am N 8 10 - - - - - - - 9.7 1019.6 -
11/12:30am N 8 9 - - - - - - - 9.6 1019.6 -
11/12:00am N 8 10 - - - - - - - 9.9 1019.9 -
 
Date/Time
EDT
Wind Sea
Height
m
Swell Vis
km
Cloud Weather Temp
°C
Press
hPa
Rain since
9am
mm
Dir  Spd
kts
Gust
kts
Height
m
Period
s
Dir
10/11:30pm NW 10 13 - - - - - - - 11.5 1020.1 -
10/11:00pm NW 10 12 - - - - - - - 11.3 1020.2 -
10/10:30pm NW 9 11 - - - - - - - 11.4 1020.4 -
10/10:00pm WNW 9 11 - - - - - - - 11.3 1020.5 -
10/09:30pm WNW 9 11 - - - - - - - 11.8 1020.4 -
10/09:00pm WNW 8 10 - - - - - - - 11.6 1020.2 -
10/08:30pm WNW 8 10 - - - - - - - 12.1 1020.1 -
10/08:00pm WNW 10 11 - - - - - - - 12.8 1020.1 -
10/07:30pm WNW 11 14 - - - - - - - 13.1 1020.0 -
10/07:00pm WNW 11 13 - - - - - - - 13.6 1019.8 -
10/06:30pm WNW 10 13 - - - - - - - 14.0 1019.4 -
10/06:00pm WNW 11 14 - - - - - - - 14.4 1019.4 -
10/05:30pm W 12 14 - - - - - - - 14.5 1019.6 -
10/05:00pm W 12 15 - - - - - - - 14.1 1019.6 -
10/04:30pm WNW 13 16 - - - - - - - 14.8 1019.8 -
10/04:00pm WNW 13 16 - - - - - - - 14.8 1019.8 -
10/03:30pm WNW 13 15 - - - - - - - 14.6 1019.9 -
10/03:00pm WNW 13 16 - - - - - - - 15.4 1019.8 -
10/02:30pm WNW 12 15 - - - - - - - 16.0 1019.7 -
10/02:00pm WNW 12 14 - - - - - - - 14.8 1019.6 -
10/01:30pm WNW 13 15 - - - - - - - 14.7 1019.6 -
10/01:00pm WNW 11 14 - - - - - - - 15.5 1019.4 -
10/12:30pm WNW 9 11 - - - - - - - 15.1 1019.3 -
10/12:00pm WNW 8 10 - - - - - - - 15.0 1019.3 -
10/11:30am NW 8 10 - - - - - - - 14.0 1019.1 -
10/11:00am W 7 9 - - - - - - - 13.5 1019.2 -
10/10:30am W 7 8 - - - - - - - 13.1 1019.0 -
10/10:00am WSW 7 10 - - - - - - - 12.7 1018.7 -
10/09:30am WSW 7 9 - - - - - - - 12.8 1018.7 -
10/09:00am SW 9 14 - - - - - - - 12.6 1018.4 -
10/08:30am SW 9 11 - - - - - - - 11.7 1018.0 -
10/08:00am WSW 7 10 - - - - - - - 11.1 1017.5 -
10/07:30am SW 6 11 - - - - - - - 10.8 1017.3 -
10/07:00am WSW 9 13 - - - - - - - 10.7 1017.1 -
10/06:30am SW 6 9 - - - - - - - 10.4 1016.8 -
10/06:00am WSW 8 11 - - - - - - - 10.2 1016.4 -
10/05:30am SW 11 14 - - - - - - - 10.1 1016.1 -
10/05:00am SW 13 17 - - - - - - - 10.2 1015.8 -
10/04:30am SW 12 17 - - - - - - - 10.1 1015.7 -
10/04:00am WSW 11 16 - - - - - - - 10.2 1015.6 -
10/03:30am SW 15 21 - - - - - - - 10.2 1015.5 -
10/03:00am WSW 13 18 - - - - - - - 10.2 1015.3 -
10/02:30am SW 13 17 - - - - - - - 10.2 1015.1 -
10/02:00am SW 12 18 - - - - - - - 10.0 1015.1 -
10/01:30am SW 14 19 - - - - - - - 9.9 1015.1 -
10/01:00am SW 14 18 - - - - - - - 10.6 1014.8 -
10/12:30am SW 14 19 - - - - - - - 11.2 1014.4 -
10/12:00am WNW 10 11 - - - - - - - 11.6 1014.3 -
 
Date/Time
EDT
Wind Sea
Height
m
Swell Vis
km
Cloud Weather Temp
°C
Press
hPa
Rain since
9am
mm
Dir  Spd
kts
Gust
kts
Height
m
Period
s
Dir
09/11:30pm W 11 14 - - - - - - - 11.8 1014.1 -
09/11:00pm W 12 15 - - - - - - - 11.9 1013.8 -
09/10:30pm W 10 12 - - - - - - - 12.1 1013.7 -
09/10:00pm W 7 11 - - - - - - - 12.3 1013.3 -
09/09:30pm W 11 14 - - - - - - - 12.2 1012.9 -
09/09:00pm W 11 13 - - - - - - - 12.4 1012.4 -
09/08:30pm W 10 12 - - - - - - - 12.7 1012.3 -
09/08:00pm WNW 9 11 - - - - - - - 12.8 1012.1 -
09/07:30pm WNW 11 13 - - - - - - - 13.1 1012.1 -
09/07:00pm WNW 11 14 - - - - - - - 13.5 1011.6 -
09/06:30pm WNW 10 13 - - - - - - - 13.9 1011.1 -
09/06:00pm NW 11 13 - - - - - - - 15.2 1010.8 -
09/05:30pm WNW 15 19 - - - - - - - 15.5 1010.8 -
09/05:00pm NW 17 21 - - - - - - - 16.2 1010.7 -
09/04:30pm NW 13 17 - - - - - - - 16.5 1010.4 -
09/04:07pm WNW 16 23 - - - - - - - 15.9 1010.3 -
09/04:00pm WNW 20 26 - - - - - - - 16.0 1009.9 -
09/03:30pm W 26 30 - - - - - - - 15.1 1009.1 -
09/03:00pm W 23 27 - - - - - - - 15.1 1008.4 -
09/02:30pm W 20 29 - - - - - - - 17.7 1008.2 -
09/02:24pm WNW 15 29 - - - - - - - 18.7 1008.0 -
09/02:18pm NW 13 16 - - - - - - - 20.7 1007.8 -

Other formats

Comma delimited format used in spreadsheet applications
http://www.bom.gov.au/fwo/IDT60701/IDT60701.95961.axf

JavaScript Object Notation format (JSON) in row-major order
http://www.bom.gov.au/fwo/IDT60701/IDT60701.95961.json

Data quality

Most of these data are generated automatically and are frequently updated. Quality checks on data are not normally performed. It is possible for incorrect values to appear. Refer to information at About Latest Weather Observations and please check the disclaimer before using these data.